createdAt,value
2023-01-15T00:01:01.550Z,99583.94
2023-01-15T00:03:45.873Z,99577.88
2023-01-15T00:06:22.499Z,99571.84
2023-01-15T00:09:04.813Z,99582.00
2023-01-15T00:11:33.763Z,99578.59
2023-01-15T00:14:13.043Z,99565.47
2023-01-15T00:16:48.961Z,99574.13
2023-01-15T00:19:21.867Z,99573.38
2023-01-15T00:22:00.793Z,99575.06
2023-01-15T00:24:48.985Z,99571.56
2023-01-15T00:27:39.097Z,99570.00
2023-01-15T00:30:20.731Z,99563.84
2023-01-15T00:32:55.804Z,99561.31
2023-01-15T00:35:40.349Z,99556.00
2023-01-15T00:38:13.132Z,99554.13
2023-01-15T00:40:55.289Z,99545.75
2023-01-15T00:43:29.134Z,99548.22
2023-01-15T00:46:07.140Z,99548.97
2023-01-15T00:48:39.048Z,99551.63
2023-01-15T00:51:14.899Z,99557.75
2023-01-15T00:53:47.102Z,99555.94
2023-01-15T00:56:23.779Z,99556.94
2023-01-15T00:59:05.017Z,99560.53
2023-01-15T01:01:42.423Z,99547.53
2023-01-15T01:04:24.211Z,99546.84
2023-01-15T01:07:03.370Z,99552.00
2023-01-15T01:09:44.108Z,99546.00
2023-01-15T01:12:15.314Z,99540.03
2023-01-15T01:14:49.219Z,99538.03
2023-01-15T01:17:27.562Z,99545.09
2023-01-15T01:23:01.452Z,99545.34
2023-01-15T01:25:35.718Z,99536.87
2023-01-15T01:28:16.869Z,99537.81
2023-01-15T01:30:55.072Z,99530.81
2023-01-15T01:33:36.355Z,99536.87
2023-01-15T01:36:16.495Z,99528.28
2023-01-15T01:38:56.773Z,99525.66
2023-01-15T01:41:27.506Z,99524.88
2023-01-15T01:44:38.919Z,99512.63
2023-01-15T01:47:26.310Z,99517.00
2023-01-15T01:50:13.430Z,99514.44
2023-01-15T01:53:00.525Z,99508.28
2023-01-15T01:55:43.354Z,99501.56
2023-01-15T01:58:16.706Z,99493.75
2023-01-15T02:01:03.180Z,99484.13
2023-01-15T02:03:48.759Z,99480.66
2023-01-15T02:06:31.249Z,99474.63
2023-01-15T02:09:18.567Z,99472.94
2023-01-15T02:11:55.976Z,99458.06
2023-01-15T02:15:07.640Z,99453.84
2023-01-15T02:18:17.109Z,99456.47
2023-01-15T02:21:08.837Z,99443.59
2023-01-15T02:24:10.520Z,99450.53
2023-01-15T02:27:23.131Z,99450.72
2023-01-15T02:30:35.537Z,99443.78
2023-01-15T02:33:29.250Z,99443.63
2023-01-15T02:36:13.068Z,99434.75
2023-01-15T02:38:59.076Z,99439.19
2023-01-15T02:41:42.107Z,99435.78
2023-01-15T02:44:23.569Z,99440.94
2023-01-15T02:47:06.130Z,99431.59
2023-01-15T02:49:52.502Z,99429.84
2023-01-15T02:52:46.666Z,99427.88
2023-01-15T02:55:29.276Z,99425.28
2023-01-15T02:58:08.591Z,99425.28
2023-01-15T03:00:53.659Z,99426.22
2023-01-15T03:03:40.355Z,99420.94
2023-01-15T03:06:40.846Z,99424.38
2023-01-15T03:09:21.954Z,99414.87
2023-01-15T03:12:14.468Z,99403.69
2023-01-15T03:15:44.786Z,99407.88
2023-01-15T03:18:28.749Z,99412.47
2023-01-15T03:21:10.860Z,99402.91
2023-01-15T03:23:57.452Z,99396.81
2023-01-15T03:26:31.104Z,99405.59
2023-01-15T03:29:04.081Z,99399.50
2023-01-15T03:31:37.607Z,99393.34
2023-01-15T03:34:18.982Z,99396.09
2023-01-15T03:36:52.529Z,99396.03
2023-01-15T03:39:32.613Z,99393.34
2023-01-15T03:42:33.961Z,99389.75
2023-01-15T03:45:27.465Z,99393.97
2023-01-15T03:48:24.995Z,99394.09
2023-01-15T03:51:23.793Z,99381.84
2023-01-15T03:54:02.960Z,99381.84
2023-01-15T03:56:58.281Z,99390.56
2023-01-15T03:59:56.019Z,99385.25
2023-01-15T04:02:42.710Z,99378.41
2023-01-15T04:05:24.494Z,99373.19
2023-01-15T04:08:09.166Z,99383.69
2023-01-15T04:11:04.322Z,99380.25
2023-01-15T04:13:48.574Z,99381.19
2023-01-15T04:16:33.453Z,99378.50
2023-01-15T04:19:09.974Z,99376.69
2023-01-15T04:22:00.840Z,99392.34
2023-01-15T04:24:33.675Z,99387.09
2023-01-15T04:27:13.384Z,99381.16
2023-01-15T04:29:48.186Z,99380.25
2023-01-15T04:32:23.770Z,99377.50
2023-01-15T04:34:57.657Z,99371.44
2023-01-15T04:37:30.787Z,99369.59
2023-01-15T04:40:04.013Z,99372.28
2023-01-15T04:43:20.434Z,99361.97
2023-01-15T04:45:55.681Z,99361.09
2023-01-15T04:48:29.420Z,99368.94
2023-01-15T04:51:07.633Z,99370.53
2023-01-15T04:53:45.017Z,99360.97
2023-01-15T04:56:26.498Z,99356.72
2023-01-15T04:58:58.497Z,99363.63
2023-01-15T05:01:32.287Z,99347.06
2023-01-15T05:04:08.067Z,99348.03
2023-01-15T05:06:45.166Z,99349.81
2023-01-15T05:09:16.951Z,99344.56
2023-01-15T05:12:05.065Z,99352.41
2023-01-15T05:14:40.844Z,99341.72
2023-01-15T05:17:18.247Z,99345.41
2023-01-15T05:20:00.351Z,99342.81
2023-01-15T05:22:47.952Z,99341.97
2023-01-15T05:25:16.908Z,99329.59
2023-01-15T05:27:47.869Z,99328.81
2023-01-15T05:30:29.109Z,99332.16
2023-01-15T05:32:57.472Z,99314.87
2023-01-15T05:35:31.596Z,99311.31
2023-01-15T05:38:10.743Z,99312.34
2023-01-15T05:40:43.166Z,99304.59
2023-01-15T05:43:17.532Z,99312.44
2023-01-15T05:45:48.221Z,99305.38
2023-01-15T05:48:29.835Z,99299.25
2023-01-15T05:51:10.142Z,99288.81
2023-01-15T05:53:47.708Z,99285.47
2023-01-15T05:56:29.037Z,99295.03
2023-01-15T05:59:06.659Z,99282.91
2023-01-15T06:01:45.270Z,99288.00
2023-01-15T06:04:18.275Z,99291.41
2023-01-15T06:06:58.792Z,99278.47
2023-01-15T06:09:38.315Z,99271.50
2023-01-15T06:12:17.273Z,99276.53
2023-01-15T06:14:56.640Z,99268.72
2023-01-15T06:17:34.230Z,99268.56
2023-01-15T06:20:04.729Z,99278.06
2023-01-15T06:22:39.487Z,99275.63
2023-01-15T06:25:27.481Z,99272.13
2023-01-15T06:27:58.932Z,99285.94
2023-01-15T06:30:32.672Z,99277.22
2023-01-15T06:33:03.610Z,99278.84
2023-01-15T06:35:40.131Z,99279.59
2023-01-15T06:38:15.930Z,99285.75
2023-01-15T06:40:57.481Z,99290.06
2023-01-15T06:43:46.119Z,99291.47
2023-01-15T06:46:39.760Z,99287.84
2023-01-15T06:49:17.443Z,99283.66
2023-01-15T06:51:50.573Z,99274.03
2023-01-15T06:54:23.819Z,99279.13
2023-01-15T06:56:55.586Z,99267.84
2023-01-15T06:59:25.619Z,99270.66
2023-01-15T07:02:14.811Z,99271.31
2023-01-15T07:04:44.507Z,99270.28
2023-01-15T07:07:23.092Z,99266.63
2023-01-15T07:09:53.648Z,99267.66
2023-01-15T07:12:29.457Z,99261.44
2023-01-15T07:15:09.670Z,99270.03
2023-01-15T07:17:46.626Z,99268.06
2023-01-15T07:20:23.595Z,99274.06
2023-01-15T07:23:06.534Z,99261.84
2023-01-15T07:25:39.967Z,99266.09
2023-01-15T07:28:29.324Z,99272.91
2023-01-15T07:31:03.170Z,99268.53
2023-01-15T07:33:34.304Z,99265.81
2023-01-15T07:36:12.610Z,99256.09
2023-01-15T07:38:46.048Z,99254.25
2023-01-15T07:41:37.414Z,99254.03
2023-01-15T07:44:28.352Z,99251.34
2023-01-15T07:47:27.047Z,99255.78
2023-01-15T07:50:01.071Z,99243.47
2023-01-15T07:52:39.903Z,99244.03
2023-01-15T07:55:15.520Z,99245.87
2023-01-15T07:57:47.719Z,99243.19
2023-01-15T08:00:23.092Z,99238.72
2023-01-15T08:02:55.359Z,99239.59
2023-01-15T08:05:29.155Z,99234.22
2023-01-15T08:08:12.067Z,99220.94
2023-01-15T08:11:04.482Z,99241.75
2023-01-15T08:13:58.129Z,99243.50
2023-01-15T08:16:31.962Z,99234.06
2023-01-15T08:19:05.745Z,99247.59
2023-01-15T08:21:40.166Z,99239.75
2023-01-15T08:24:18.314Z,99239.84
2023-01-15T08:27:00.114Z,99235.59
2023-01-15T08:29:39.408Z,99239.13
2023-01-15T08:32:12.073Z,99245.13
2023-01-15T08:34:56.732Z,99243.22
2023-01-15T08:37:37.403Z,99243.06
2023-01-15T08:40:19.132Z,99237.75
2023-01-15T08:42:58.211Z,99249.28
2023-01-15T08:45:35.581Z,99236.09
2023-01-15T08:48:10.867Z,99231.47
2023-01-15T08:50:50.595Z,99227.69
2023-01-15T08:53:37.329Z,99232.50
2023-01-15T08:56:23.051Z,99234.88
2023-01-15T08:58:55.933Z,99237.16
2023-01-15T09:01:36.631Z,99225.22
2023-01-15T09:04:24.388Z,99225.00
2023-01-15T09:06:54.681Z,99219.56
2023-01-15T09:09:31.051Z,99223.28
2023-01-15T09:12:04.577Z,99208.50
2023-01-15T09:14:58.504Z,99210.13
2023-01-15T09:17:35.745Z,99206.66
2023-01-15T09:20:24.815Z,99200.59
2023-01-15T09:23:04.470Z,99198.88
2023-01-15T09:25:41.810Z,99191.81
2023-01-15T09:28:18.044Z,99184.75
2023-01-15T09:30:49.755Z,99177.16
2023-01-15T09:33:27.066Z,99174.31
2023-01-15T09:35:57.926Z,99171.16
2023-01-15T09:38:36.065Z,99159.47
2023-01-15T09:41:39.788Z,99161.75
2023-01-15T09:44:45.196Z,99160.59
2023-01-15T09:47:41.389Z,99155.87
2023-01-15T09:50:30.652Z,99141.31
2023-01-15T09:53:39.945Z,99141.00
2023-01-15T09:56:31.821Z,99143.38
2023-01-15T09:59:12.568Z,99134.97
2023-01-15T10:01:57.141Z,99122.59
2023-01-15T10:04:49.463Z,99126.72
2023-01-15T10:07:56.615Z,99109.03
2023-01-15T10:10:43.046Z,99109.28
2023-01-15T10:13:42.596Z,99100.69
2023-01-15T10:16:35.648Z,99088.97
2023-01-15T10:19:07.048Z,99077.13
2023-01-15T10:22:02.172Z,99085.59
2023-01-15T10:24:54.947Z,99084.03
2023-01-15T10:27:38.375Z,99071.84
2023-01-15T10:30:48.540Z,99081.00
2023-01-15T10:33:33.128Z,99059.44
2023-01-15T10:36:24.461Z,99061.44
2023-01-15T10:39:26.753Z,99056.41
2023-01-15T10:42:48.744Z,99050.13
2023-01-15T10:45:31.154Z,99042.31
2023-01-15T10:48:16.284Z,99024.78
2023-01-15T10:50:52.868Z,99030.38
2023-01-15T10:53:46.242Z,99024.97
2023-01-15T10:56:43.362Z,99016.59
2023-01-15T10:59:33.994Z,99014.66
2023-01-15T11:02:39.557Z,98994.31
2023-01-15T11:05:25.755Z,99002.37
2023-01-15T11:08:45.280Z,98994.06
2023-01-15T11:12:07.777Z,98985.63
2023-01-15T11:15:07.476Z,98982.63
2023-01-15T11:18:11.292Z,98968.19
2023-01-15T11:20:50.148Z,98978.47
2023-01-15T11:23:23.528Z,98969.31
2023-01-15T11:26:09.560Z,98974.50
2023-01-15T11:28:46.634Z,98964.22
2023-01-15T11:31:18.371Z,98953.72
2023-01-15T11:34:08.627Z,98955.31
2023-01-15T11:36:44.972Z,98959.63
2023-01-15T11:39:29.179Z,98945.44
2023-01-15T11:42:27.679Z,98945.00
2023-01-15T11:45:23.236Z,98927.91
2023-01-15T11:48:18.819Z,98913.59
2023-01-15T11:51:05.387Z,98901.72
2023-01-15T11:53:57.823Z,98893.72
2023-01-15T11:56:36.785Z,98880.31
2023-01-15T11:59:14.563Z,98883.25
2023-01-15T12:02:00.824Z,98874.97
2023-01-15T12:04:57.826Z,98864.34
2023-01-15T12:07:36.463Z,98859.31
2023-01-15T12:10:56.879Z,98854.91
2023-01-15T12:13:54.218Z,98864.56
2023-01-15T12:20:32.131Z,98867.59
2023-01-15T12:23:38.706Z,98851.50
2023-01-15T12:26:36.581Z,98854.69
2023-01-15T12:29:36.552Z,98853.06
2023-01-15T12:32:23.690Z,98853.66
2023-01-15T12:35:23.761Z,98850.78
2023-01-15T12:38:25.294Z,98843.22
2023-01-15T12:41:20.223Z,98841.69
2023-01-15T12:44:21.692Z,98844.31
2023-01-15T12:47:16.849Z,98845.06
2023-01-15T12:50:02.564Z,98846.94
2023-01-15T12:52:44.465Z,98839.91
2023-01-15T12:55:34.338Z,98833.44
2023-01-15T12:58:17.652Z,98831.72
2023-01-15T13:00:53.247Z,98836.06
2023-01-15T13:03:55.713Z,98835.13
2023-01-15T13:06:30.449Z,98837.69
2023-01-15T13:09:19.346Z,98831.66
2023-01-15T13:11:57.305Z,98837.97
2023-01-15T13:14:34.166Z,98832.50
2023-01-15T13:17:25.135Z,98841.31
2023-01-15T13:20:30.797Z,98830.81
2023-01-15T13:23:25.153Z,98824.69
2023-01-15T13:26:47.535Z,98817.91
2023-01-15T13:29:42.457Z,98807.72
2023-01-15T13:32:27.806Z,98799.63
2023-01-15T13:35:12.722Z,98805.88
2023-01-15T13:37:52.717Z,98803.41
2023-01-15T13:40:43.648Z,98795.38
2023-01-15T13:43:40.168Z,98792.81
2023-01-15T13:46:17.724Z,98800.06
2023-01-15T13:49:02.424Z,98786.53
2023-01-15T13:51:44.530Z,98789.22
2023-01-15T13:54:25.908Z,98784.78
2023-01-15T13:57:09.401Z,98784.06
2023-01-15T13:59:55.089Z,98783.13
2023-01-15T14:02:37.360Z,98783.38
2023-01-15T14:05:42.329Z,98778.97
2023-01-15T14:08:17.773Z,98781.75
2023-01-15T14:11:00.408Z,98783.97
2023-01-15T14:14:09.544Z,98777.03
2023-01-15T14:17:11.343Z,98773.41
2023-01-15T14:20:15.507Z,98777.72
2023-01-15T14:23:08.743Z,98781.44
2023-01-15T14:26:01.773Z,98773.69
2023-01-15T14:29:22.113Z,98772.75
2023-01-15T14:32:49.497Z,98769.50
2023-01-15T14:35:26.602Z,98769.59
2023-01-15T14:38:07.688Z,98756.59
2023-01-15T14:41:07.977Z,98759.19
2023-01-15T14:43:38.254Z,98759.63
2023-01-15T14:46:29.760Z,98755.75
2023-01-15T14:49:05.656Z,98758.44
2023-01-15T14:51:51.778Z,98759.63
2023-01-15T14:54:26.050Z,98758.59
2023-01-15T14:57:06.768Z,98756.69
2023-01-15T14:59:52.662Z,98760.31
2023-01-15T15:02:38.106Z,98757.34
2023-01-15T15:05:25.032Z,98758.03
2023-01-15T15:08:03.328Z,98748.63
2023-01-15T15:10:43.705Z,98748.28
2023-01-15T15:13:39.693Z,98748.09
2023-01-15T15:16:36.215Z,98738.81
2023-01-15T15:19:58.791Z,98735.16
2023-01-15T15:22:38.638Z,98734.91
2023-01-15T15:25:21.638Z,98729.59
2023-01-15T15:28:13.467Z,98728.69
2023-01-15T15:34:42.091Z,98723.72
2023-01-15T15:37:31.022Z,98724.34
2023-01-15T15:40:37.578Z,98722.03
2023-01-15T15:43:50.724Z,98721.00
2023-01-15T15:46:51.455Z,98716.78
2023-01-15T15:49:48.745Z,98715.63
2023-01-15T15:52:29.403Z,98722.94
2023-01-15T15:55:07.178Z,98719.41
2023-01-15T15:57:46.371Z,98718.31
2023-01-15T16:00:26.132Z,98715.75
2023-01-15T16:03:10.725Z,98719.41
2023-01-15T16:06:02.425Z,98715.06
2023-01-15T16:08:43.228Z,98711.53
2023-01-15T16:11:28.974Z,98712.37
2023-01-15T16:14:12.719Z,98720.16
2023-01-15T16:16:52.795Z,98718.38
2023-01-15T16:19:38.481Z,98714.72
2023-01-15T16:22:23.223Z,98716.31
2023-01-15T16:25:01.420Z,98719.41
2023-01-15T16:27:37.880Z,98718.47
2023-01-15T16:30:23.214Z,98707.34
2023-01-15T16:33:00.319Z,98709.25
2023-01-15T16:35:42.104Z,98715.50
2023-01-15T16:38:27.714Z,98717.84
2023-01-15T16:41:16.078Z,98718.06
2023-01-15T16:44:03.541Z,98715.50
2023-01-15T16:46:59.972Z,98710.91
2023-01-15T16:49:39.848Z,98713.53
2023-01-15T16:52:47.995Z,98708.72
2023-01-15T16:55:52.274Z,98700.41
2023-01-15T16:58:44.814Z,98701.25
2023-01-15T17:01:48.747Z,98703.19
2023-01-15T17:04:47.415Z,98707.72
2023-01-15T17:07:53.425Z,98702.06
2023-01-15T17:10:34.476Z,98699.31
2023-01-15T17:13:25.443Z,98700.00
2023-01-15T17:16:25.970Z,98695.88
2023-01-15T17:19:11.519Z,98692.72
2023-01-15T17:21:48.828Z,98690.03
2023-01-15T17:24:33.060Z,98685.78
2023-01-15T17:27:06.561Z,98693.56
2023-01-15T17:29:46.928Z,98693.47
2023-01-15T17:32:45.560Z,98691.66
2023-01-15T17:35:42.882Z,98694.00
2023-01-15T17:38:20.198Z,98689.03
2023-01-15T17:40:57.651Z,98683.78
2023-01-15T17:43:33.776Z,98689.03
2023-01-15T17:46:13.991Z,98685.00
2023-01-15T17:48:54.555Z,98686.91
2023-01-15T17:51:36.005Z,98690.37
2023-01-15T17:54:40.231Z,98692.44
2023-01-15T17:57:32.610Z,98691.88
2023-01-15T18:00:25.309Z,98686.50
2023-01-15T18:03:19.880Z,98689.87
2023-01-15T18:05:59.941Z,98682.66
2023-01-15T18:08:35.476Z,98682.56
2023-01-15T18:11:12.105Z,98683.78
2023-01-15T18:13:58.187Z,98683.44
2023-01-15T18:16:31.020Z,98684.00
2023-01-15T18:19:09.284Z,98682.53
2023-01-15T18:21:48.728Z,98689.16
2023-01-15T18:24:23.596Z,98690.25
2023-01-15T18:27:00.926Z,98688.19
2023-01-15T18:29:43.538Z,98694.62
2023-01-15T18:32:13.311Z,98693.22
2023-01-15T18:34:52.974Z,98689.72
2023-01-15T18:37:31.130Z,98696.97
2023-01-15T18:40:02.813Z,98699.50
2023-01-15T18:42:55.972Z,98703.63
2023-01-15T18:45:50.758Z,98700.28
2023-01-15T18:48:29.592Z,98699.16
2023-01-15T18:51:13.938Z,98698.50
2023-01-15T18:53:54.111Z,98695.19
2023-01-15T18:56:51.435Z,98708.28
2023-01-15T18:59:29.709Z,98707.41
2023-01-15T19:02:05.463Z,98696.59
2023-01-15T19:04:43.748Z,98709.03
2023-01-15T19:07:20.040Z,98708.25
2023-01-15T19:09:52.157Z,98701.38
2023-01-15T19:12:31.323Z,98709.56
2023-01-15T19:15:22.633Z,98705.22
2023-01-15T19:18:19.940Z,98706.78
2023-01-15T19:20:51.017Z,98721.00
2023-01-15T19:23:34.282Z,98713.53
2023-01-15T19:26:11.682Z,98717.97
2023-01-15T19:28:45.803Z,98719.75
2023-01-15T19:31:37.545Z,98719.84
2023-01-15T19:34:33.296Z,98715.09
2023-01-15T19:37:08.681Z,98706.22
2023-01-15T19:39:47.819Z,98704.72
2023-01-15T19:42:42.713Z,98707.81
2023-01-15T19:45:41.740Z,98699.53
2023-01-15T19:48:34.667Z,98702.22
2023-01-15T19:51:15.739Z,98699.66
2023-01-15T19:53:48.894Z,98696.06
2023-01-15T19:56:28.509Z,98700.66
2023-01-15T19:59:06.718Z,98710.94
2023-01-15T20:01:42.568Z,98711.13
2023-01-15T20:04:21.742Z,98707.47
2023-01-15T20:06:55.124Z,98701.31
2023-01-15T20:09:37.901Z,98705.84
2023-01-15T20:12:41.035Z,98707.75
2023-01-15T20:15:24.107Z,98707.88
2023-01-15T20:17:57.985Z,98686.53
2023-01-15T20:20:37.779Z,98707.59
2023-01-15T20:23:10.931Z,98688.22
2023-01-15T20:25:55.604Z,98690.13
2023-01-15T20:28:29.472Z,98710.88
2023-01-15T20:31:07.191Z,98712.25
2023-01-15T20:33:40.349Z,98709.06
2023-01-15T20:36:23.238Z,98709.09
2023-01-15T20:38:58.608Z,98710.06
2023-01-15T20:41:55.635Z,98709.09
2023-01-15T20:44:46.980Z,98710.88
2023-01-15T20:47:49.617Z,98706.47
2023-01-15T20:50:21.812Z,98708.34
2023-01-15T20:53:10.668Z,98707.53
2023-01-15T20:55:57.400Z,98704.84
2023-01-15T20:58:40.015Z,98708.84
2023-01-15T21:01:23.027Z,98700.84
2023-01-15T21:04:01.630Z,98710.81
2023-01-15T21:06:44.903Z,98700.47
2023-01-15T21:09:16.733Z,98706.72
2023-01-15T21:11:56.825Z,98700.88
2023-01-15T21:14:38.408Z,98692.81
2023-01-15T21:17:17.603Z,98691.03
2023-01-15T21:20:05.163Z,98677.34
2023-01-15T21:22:47.391Z,98685.69
2023-01-15T21:25:25.790Z,98697.16
2023-01-15T21:27:58.081Z,98687.81
2023-01-15T21:30:30.687Z,98689.47
2023-01-15T21:33:01.590Z,98693.19
2023-01-15T21:35:48.414Z,98696.81
2023-01-15T21:38:20.594Z,98692.34
2023-01-15T21:41:12.466Z,98680.69
2023-01-15T21:44:02.952Z,98673.66
2023-01-15T21:46:33.488Z,98668.50
2023-01-15T21:49:11.994Z,98667.47
2023-01-15T21:51:51.317Z,98665.59
2023-01-15T21:54:33.133Z,98662.13
2023-01-15T21:57:11.644Z,98666.38
2023-01-15T21:59:42.745Z,98669.72
2023-01-15T22:02:33.173Z,98667.31
2023-01-15T22:05:12.924Z,98675.94
2023-01-15T22:07:49.050Z,98676.06
2023-01-15T22:10:21.566Z,98672.72
2023-01-15T22:12:53.019Z,98660.09
2023-01-15T22:15:35.603Z,98656.12
2023-01-15T22:18:08.487Z,98650.28
2023-01-15T22:20:44.596Z,98654.31
2023-01-15T22:23:22.940Z,98651.31
2023-01-15T22:26:01.373Z,98661.34
2023-01-15T22:28:44.015Z,98659.09
2023-01-15T22:31:21.551Z,98669.56
2023-01-15T22:33:56.773Z,98670.66
2023-01-15T22:36:44.179Z,98679.69
2023-01-15T22:39:21.932Z,98672.13
2023-01-15T22:42:16.724Z,98674.03
2023-01-15T22:44:56.157Z,98676.72
2023-01-15T22:47:40.351Z,98673.19
2023-01-15T22:50:13.339Z,98692.22
2023-01-15T22:52:43.379Z,98688.53
2023-01-15T22:55:24.651Z,98689.13
2023-01-15T22:58:04.293Z,98693.31
2023-01-15T23:00:42.392Z,98687.19
2023-01-15T23:03:30.497Z,98690.47
2023-01-15T23:06:10.836Z,98680.75
2023-01-15T23:08:42.523Z,98677.94
2023-01-15T23:11:19.160Z,98681.28
2023-01-15T23:13:50.341Z,98675.19
2023-01-15T23:16:25.985Z,98666.31
2023-01-15T23:18:59.266Z,98657.44
2023-01-15T23:21:29.261Z,98644.31
2023-01-15T23:24:02.681Z,98622.09
2023-01-15T23:26:41.098Z,98616.34
2023-01-15T23:29:18.635Z,98633.97
2023-01-15T23:31:56.723Z,98662.13
2023-01-15T23:34:29.596Z,98660.47
2023-01-15T23:37:11.554Z,98657.13
2023-01-15T23:39:42.582Z,98653.22
2023-01-15T23:42:33.317Z,98653.03
2023-01-15T23:45:24.466Z,98647.28
2023-01-15T23:47:54.055Z,98633.69
2023-01-15T23:50:25.429Z,98644.84
2023-01-15T23:53:01.302Z,98640.28
2023-01-15T23:55:45.557Z,98631.56
2023-01-15T23:58:20.624Z,98627.97
